sensor_id;sensor_type;location;lat;lon;timestamp;P1;durP1;ratioP1;P2;durP2;ratioP2
67902;SDS011;54708;43.612;1.568;2022-11-21T00:00:11;15.00;;;4.15;;
67902;SDS011;54708;43.612;1.568;2022-11-21T00:02:37;10.65;;;3.88;;
67902;SDS011;54708;43.612;1.568;2022-11-21T00:05:03;16.33;;;4.75;;
67902;SDS011;54708;43.612;1.568;2022-11-21T00:07:28;22.50;;;10.70;;
67902;SDS011;54708;43.612;1.568;2022-11-21T00:09:54;13.77;;;6.65;;
67902;SDS011;54708;43.612;1.568;2022-11-21T00:12:19;12.55;;;5.25;;
67902;SDS011;54708;43.612;1.568;2022-11-21T00:14:44;13.60;;;6.20;;
67902;SDS011;54708;43.612;1.568;2022-11-21T00:17:10;14.93;;;5.00;;
67902;SDS011;54708;43.612;1.568;2022-11-21T00:19:35;15.80;;;6.25;;
67902;SDS011;54708;43.612;1.568;2022-11-21T00:22:00;21.27;;;5.15;;
67902;SDS011;54708;43.612;1.568;2022-11-21T00:24:26;16.30;;;5.70;;
67902;SDS011;54708;43.612;1.568;2022-11-21T00:26:51;11.02;;;4.28;;
67902;SDS011;54708;43.612;1.568;2022-11-21T00:29:16;12.82;;;3.67;;
67902;SDS011;54708;43.612;1.568;2022-11-21T00:31:42;14.43;;;3.70;;
67902;SDS011;54708;43.612;1.568;2022-11-21T00:34:08;14.02;;;4.47;;
67902;SDS011;54708;43.612;1.568;2022-11-21T00:36:33;15.13;;;4.72;;
67902;SDS011;54708;43.612;1.568;2022-11-21T00:38:59;18.33;;;4.55;;
67902;SDS011;54708;43.612;1.568;2022-11-21T00:41:24;8.65;;;3.47;;
67902;SDS011;54708;43.612;1.568;2022-11-21T00:43:49;12.25;;;2.88;;
67902;SDS011;54708;43.612;1.568;2022-11-21T00:46:15;16.45;;;4.35;;
67902;SDS011;54708;43.612;1.568;2022-11-21T00:48:40;14.68;;;3.63;;
67902;SDS011;54708;43.612;1.568;2022-11-21T00:51:05;18.02;;;4.28;;
67902;SDS011;54708;43.612;1.568;2022-11-21T00:53:31;9.98;;;3.80;;
67902;SDS011;54708;43.612;1.568;2022-11-21T00:55:56;12.50;;;3.25;;
67902;SDS011;54708;43.612;1.568;2022-11-21T00:58:22;11.82;;;3.10;;
67902;SDS011;54708;43.612;1.568;2022-11-21T01:00:47;11.35;;;3.38;;
67902;SDS011;54708;43.612;1.568;2022-11-21T01:03:13;8.57;;;3.60;;
67902;SDS011;54708;43.612;1.568;2022-11-21T01:05:38;11.82;;;3.42;;
67902;SDS011;54708;43.612;1.568;2022-11-21T01:08:04;10.73;;;3.40;;
67902;SDS011;54708;43.612;1.568;2022-11-21T01:10:30;8.77;;;4.18;;
67902;SDS011;54708;43.612;1.568;2022-11-21T01:12:55;8.73;;;3.72;;
67902;SDS011;54708;43.612;1.568;2022-11-21T01:15:20;20.48;;;5.30;;
67902;SDS011;54708;43.612;1.568;2022-11-21T01:17:46;7.15;;;3.30;;
67902;SDS011;54708;43.612;1.568;2022-11-21T01:20:11;15.15;;;4.43;;
67902;SDS011;54708;43.612;1.568;2022-11-21T01:22:37;12.30;;;4.10;;
67902;SDS011;54708;43.612;1.568;2022-11-21T01:25:02;13.90;;;3.35;;
67902;SDS011;54708;43.612;1.568;2022-11-21T01:27:28;18.30;;;4.28;;
67902;SDS011;54708;43.612;1.568;2022-11-21T01:29:53;12.30;;;4.38;;
67902;SDS011;54708;43.612;1.568;2022-11-21T01:32:18;18.88;;;3.97;;
67902;SDS011;54708;43.612;1.568;2022-11-21T01:34:44;17.75;;;5.13;;
67902;SDS011;54708;43.612;1.568;2022-11-21T01:37:09;12.48;;;4.50;;
67902;SDS011;54708;43.612;1.568;2022-11-21T01:39:34;11.07;;;4.20;;
67902;SDS011;54708;43.612;1.568;2022-11-21T01:42:00;15.27;;;4.15;;
67902;SDS011;54708;43.612;1.568;2022-11-21T01:44:43;9.77;;;3.42;;
67902;SDS011;54708;43.612;1.568;2022-11-21T01:47:10;10.52;;;3.33;;
67902;SDS011;54708;43.612;1.568;2022-11-21T01:49:37;10.35;;;3.72;;
67902;SDS011;54708;43.612;1.568;2022-11-21T01:54:43;11.95;;;4.07;;
67902;SDS011;54708;43.612;1.568;2022-11-21T02:02:23;15.95;;;3.70;;
67902;SDS011;54708;43.612;1.568;2022-11-21T02:04:52;7.57;;;3.58;;
67902;SDS011;54708;43.612;1.568;2022-11-21T02:07:18;10.35;;;3.53;;
67902;SDS011;54708;43.612;1.568;2022-11-21T02:09:47;9.02;;;3.55;;
67902;SDS011;54708;43.612;1.568;2022-11-21T02:12:27;13.63;;;3.47;;
67902;SDS011;54708;43.612;1.568;2022-11-21T02:14:55;11.65;;;3.75;;
67902;SDS011;54708;43.612;1.568;2022-11-21T02:17:22;9.30;;;3.30;;
67902;SDS011;54708;43.612;1.568;2022-11-21T02:19:54;11.82;;;3.33;;
67902;SDS011;54708;43.612;1.568;2022-11-21T02:25:31;8.43;;;4.07;;
67902;SDS011;54708;43.612;1.568;2022-11-21T02:28:03;8.85;;;2.88;;
67902;SDS011;54708;43.612;1.568;2022-11-21T02:30:30;12.32;;;2.85;;
67902;SDS011;54708;43.612;1.568;2022-11-21T02:32:57;6.80;;;2.88;;
67902;SDS011;54708;43.612;1.568;2022-11-21T02:35:23;12.65;;;3.75;;
67902;SDS011;54708;43.612;1.568;2022-11-21T02:37:53;8.85;;;2.90;;
67902;SDS011;54708;43.612;1.568;2022-11-21T02:40:32;14.02;;;3.50;;
67902;SDS011;54708;43.612;1.568;2022-11-21T02:43:05;7.72;;;3.13;;
67902;SDS011;54708;43.612;1.568;2022-11-21T02:48:04;8.27;;;3.13;;
67902;SDS011;54708;43.612;1.568;2022-11-21T02:52:56;9.32;;;2.75;;
67902;SDS011;54708;43.612;1.568;2022-11-21T02:55:22;11.23;;;3.05;;
67902;SDS011;54708;43.612;1.568;2022-11-21T02:57:48;10.13;;;3.20;;
67902;SDS011;54708;43.612;1.568;2022-11-21T03:00:13;12.02;;;4.18;;
67902;SDS011;54708;43.612;1.568;2022-11-21T03:02:39;10.13;;;2.63;;
67902;SDS011;54708;43.612;1.568;2022-11-21T03:05:07;8.73;;;2.88;;
67902;SDS011;54708;43.612;1.568;2022-11-21T03:07:33;11.43;;;3.08;;
67902;SDS011;54708;43.612;1.568;2022-11-21T03:09:59;11.40;;;3.17;;
67902;SDS011;54708;43.612;1.568;2022-11-21T03:12:24;12.35;;;3.08;;
67902;SDS011;54708;43.612;1.568;2022-11-21T03:14:50;10.40;;;3.90;;
67902;SDS011;54708;43.612;1.568;2022-11-21T03:17:15;12.35;;;3.60;;
67902;SDS011;54708;43.612;1.568;2022-11-21T03:19:41;9.82;;;2.88;;
67902;SDS011;54708;43.612;1.568;2022-11-21T03:22:06;10.50;;;3.85;;
67902;SDS011;54708;43.612;1.568;2022-11-21T03:24:32;13.48;;;3.65;;
67902;SDS011;54708;43.612;1.568;2022-11-21T03:26:57;13.63;;;4.50;;
67902;SDS011;54708;43.612;1.568;2022-11-21T03:29:23;9.45;;;3.30;;
67902;SDS011;54708;43.612;1.568;2022-11-21T03:31:48;12.02;;;3.88;;
67902;SDS011;54708;43.612;1.568;2022-11-21T03:34:14;10.85;;;3.60;;
67902;SDS011;54708;43.612;1.568;2022-11-21T03:36:39;8.68;;;4.57;;
67902;SDS011;54708;43.612;1.568;2022-11-21T03:39:05;6.95;;;4.30;;
67902;SDS011;54708;43.612;1.568;2022-11-21T03:41:30;9.98;;;2.83;;
67902;SDS011;54708;43.612;1.568;2022-11-21T03:44:00;7.93;;;3.25;;
67902;SDS011;54708;43.612;1.568;2022-11-21T03:46:27;18.05;;;4.68;;
67902;SDS011;54708;43.612;1.568;2022-11-21T03:48:54;12.30;;;3.53;;
67902;SDS011;54708;43.612;1.568;2022-11-21T03:51:19;11.00;;;3.47;;
67902;SDS011;54708;43.612;1.568;2022-11-21T03:53:45;8.45;;;3.85;;
67902;SDS011;54708;43.612;1.568;2022-11-21T03:56:10;10.88;;;3.47;;
67902;SDS011;54708;43.612;1.568;2022-11-21T03:58:36;10.57;;;3.38;;
67902;SDS011;54708;43.612;1.568;2022-11-21T04:01:01;13.48;;;3.58;;
67902;SDS011;54708;43.612;1.568;2022-11-21T04:03:27;12.95;;;5.38;;
67902;SDS011;54708;43.612;1.568;2022-11-21T04:05:52;12.70;;;4.78;;
67902;SDS011;54708;43.612;1.568;2022-11-21T04:08:18;9.95;;;3.35;;
67902;SDS011;54708;43.612;1.568;2022-11-21T04:10:47;10.52;;;3.88;;
67902;SDS011;54708;43.612;1.568;2022-11-21T04:13:13;18.15;;;4.20;;
67902;SDS011;54708;43.612;1.568;2022-11-21T04:15:39;19.90;;;4.20;;
67902;SDS011;54708;43.612;1.568;2022-11-21T04:18:05;13.43;;;3.92;;
67902;SDS011;54708;43.612;1.568;2022-11-21T04:20:31;16.25;;;3.85;;
67902;SDS011;54708;43.612;1.568;2022-11-21T04:22:56;24.17;;;4.75;;
67902;SDS011;54708;43.612;1.568;2022-11-21T04:25:21;12.35;;;3.55;;
67902;SDS011;54708;43.612;1.568;2022-11-21T04:27:47;16.38;;;4.78;;
67902;SDS011;54708;43.612;1.568;2022-11-21T04:30:12;13.27;;;5.05;;
67902;SDS011;54708;43.612;1.568;2022-11-21T04:32:38;16.88;;;5.05;;
67902;SDS011;54708;43.612;1.568;2022-11-21T04:35:03;14.73;;;5.78;;
67902;SDS011;54708;43.612;1.568;2022-11-21T04:37:29;19.40;;;6.20;;
67902;SDS011;54708;43.612;1.568;2022-11-21T04:39:54;19.45;;;6.75;;
67902;SDS011;54708;43.612;1.568;2022-11-21T04:42:20;20.45;;;7.60;;
67902;SDS011;54708;43.612;1.568;2022-11-21T04:44:45;20.90;;;7.70;;
67902;SDS011;54708;43.612;1.568;2022-11-21T04:47:10;14.65;;;6.00;;
67902;SDS011;54708;43.612;1.568;2022-11-21T04:49:36;18.90;;;6.03;;
67902;SDS011;54708;43.612;1.568;2022-11-21T04:52:01;16.73;;;6.30;;
67902;SDS011;54708;43.612;1.568;2022-11-21T04:54:27;15.00;;;5.90;;
67902;SDS011;54708;43.612;1.568;2022-11-21T04:56:52;22.55;;;6.55;;
67902;SDS011;54708;43.612;1.568;2022-11-21T04:59:17;17.25;;;5.63;;
67902;SDS011;54708;43.612;1.568;2022-11-21T05:01:43;26.63;;;6.75;;
67902;SDS011;54708;43.612;1.568;2022-11-21T05:04:08;14.07;;;5.35;;
67902;SDS011;54708;43.612;1.568;2022-11-21T05:06:33;24.80;;;6.55;;
67902;SDS011;54708;43.612;1.568;2022-11-21T05:08:59;21.77;;;6.10;;
67902;SDS011;54708;43.612;1.568;2022-11-21T05:11:24;20.27;;;7.75;;
67902;SDS011;54708;43.612;1.568;2022-11-21T05:14:08;16.83;;;5.28;;
67902;SDS011;54708;43.612;1.568;2022-11-21T05:16:33;14.50;;;5.47;;
67902;SDS011;54708;43.612;1.568;2022-11-21T05:18:59;11.18;;;5.03;;
67902;SDS011;54708;43.612;1.568;2022-11-21T05:21:24;17.35;;;6.38;;
67902;SDS011;54708;43.612;1.568;2022-11-21T05:23:50;19.70;;;5.15;;
67902;SDS011;54708;43.612;1.568;2022-11-21T05:26:15;19.05;;;6.30;;
67902;SDS011;54708;43.612;1.568;2022-11-21T05:28:40;18.17;;;5.50;;
67902;SDS011;54708;43.612;1.568;2022-11-21T05:31:06;18.95;;;5.90;;
67902;SDS011;54708;43.612;1.568;2022-11-21T05:33:31;18.48;;;4.85;;
67902;SDS011;54708;43.612;1.568;2022-11-21T05:35:57;16.48;;;5.18;;
67902;SDS011;54708;43.612;1.568;2022-11-21T05:38:22;13.20;;;4.50;;
67902;SDS011;54708;43.612;1.568;2022-11-21T05:40:47;17.98;;;5.15;;
67902;SDS011;54708;43.612;1.568;2022-11-21T05:43:13;18.20;;;4.97;;
67902;SDS011;54708;43.612;1.568;2022-11-21T05:45:57;15.00;;;4.63;;
67902;SDS011;54708;43.612;1.568;2022-11-21T05:48:22;12.77;;;4.15;;
67902;SDS011;54708;43.612;1.568;2022-11-21T05:50:48;13.68;;;5.35;;
67902;SDS011;54708;43.612;1.568;2022-11-21T05:53:14;19.38;;;4.78;;
67902;SDS011;54708;43.612;1.568;2022-11-21T05:55:40;17.27;;;4.38;;
67902;SDS011;54708;43.612;1.568;2022-11-21T05:58:05;11.73;;;3.63;;
67902;SDS011;54708;43.612;1.568;2022-11-21T06:00:30;16.25;;;4.50;;
67902;SDS011;54708;43.612;1.568;2022-11-21T06:02:57;13.50;;;2.72;;
67902;SDS011;54708;43.612;1.568;2022-11-21T06:05:41;18.23;;;3.47;;
67902;SDS011;54708;43.612;1.568;2022-11-21T06:08:06;11.25;;;2.67;;
67902;SDS011;54708;43.612;1.568;2022-11-21T06:10:32;9.57;;;3.47;;
67902;SDS011;54708;43.612;1.568;2022-11-21T06:13:01;11.50;;;3.13;;
67902;SDS011;54708;43.612;1.568;2022-11-21T06:15:26;9.52;;;3.75;;
67902;SDS011;54708;43.612;1.568;2022-11-21T06:17:52;4.95;;;2.80;;
67902;SDS011;54708;43.612;1.568;2022-11-21T06:20:17;5.90;;;2.35;;
67902;SDS011;54708;43.612;1.568;2022-11-21T06:22:43;9.50;;;3.00;;
67902;SDS011;54708;43.612;1.568;2022-11-21T06:25:08;13.40;;;3.53;;
67902;SDS011;54708;43.612;1.568;2022-11-21T06:27:34;10.30;;;3.10;;
67902;SDS011;54708;43.612;1.568;2022-11-21T06:29:59;7.28;;;2.42;;
67902;SDS011;54708;43.612;1.568;2022-11-21T06:32:24;7.68;;;2.42;;
67902;SDS011;54708;43.612;1.568;2022-11-21T06:34:50;8.13;;;3.08;;
67902;SDS011;54708;43.612;1.568;2022-11-21T06:37:15;15.18;;;3.30;;
67902;SDS011;54708;43.612;1.568;2022-11-21T06:39:40;8.68;;;3.42;;
67902;SDS011;54708;43.612;1.568;2022-11-21T06:42:06;7.30;;;3.53;;
67902;SDS011;54708;43.612;1.568;2022-11-21T06:44:31;10.38;;;3.33;;
67902;SDS011;54708;43.612;1.568;2022-11-21T06:46:57;17.63;;;3.83;;
67902;SDS011;54708;43.612;1.568;2022-11-21T06:49:22;21.73;;;4.80;;
67902;SDS011;54708;43.612;1.568;2022-11-21T06:51:47;14.55;;;5.25;;
67902;SDS011;54708;43.612;1.568;2022-11-21T06:54:13;17.95;;;5.22;;
67902;SDS011;54708;43.612;1.568;2022-11-21T06:56:38;21.08;;;3.90;;
67902;SDS011;54708;43.612;1.568;2022-11-21T06:59:04;12.52;;;2.92;;
67902;SDS011;54708;43.612;1.568;2022-11-21T07:01:29;16.42;;;3.60;;
67902;SDS011;54708;43.612;1.568;2022-11-21T07:03:54;15.15;;;3.75;;
67902;SDS011;54708;43.612;1.568;2022-11-21T07:06:20;20.60;;;3.60;;
67902;SDS011;54708;43.612;1.568;2022-11-21T07:08:46;13.93;;;3.53;;
67902;SDS011;54708;43.612;1.568;2022-11-21T07:11:12;11.88;;;3.85;;
67902;SDS011;54708;43.612;1.568;2022-11-21T07:13:38;13.05;;;3.35;;
67902;SDS011;54708;43.612;1.568;2022-11-21T07:16:05;11.98;;;2.83;;
67902;SDS011;54708;43.612;1.568;2022-11-21T07:18:32;20.27;;;5.20;;
67902;SDS011;54708;43.612;1.568;2022-11-21T07:20:58;20.85;;;3.65;;
67902;SDS011;54708;43.612;1.568;2022-11-21T07:23:24;17.05;;;3.67;;
67902;SDS011;54708;43.612;1.568;2022-11-21T07:25:50;14.07;;;4.10;;
67902;SDS011;54708;43.612;1.568;2022-11-21T07:28:15;7.35;;;3.22;;
67902;SDS011;54708;43.612;1.568;2022-11-21T07:30:41;16.10;;;6.75;;
67902;SDS011;54708;43.612;1.568;2022-11-21T07:33:06;20.67;;;5.70;;
67902;SDS011;54708;43.612;1.568;2022-11-21T07:35:33;12.63;;;4.75;;
67902;SDS011;54708;43.612;1.568;2022-11-21T07:37:59;14.98;;;4.13;;
67902;SDS011;54708;43.612;1.568;2022-11-21T07:40:25;10.85;;;3.20;;
67902;SDS011;54708;43.612;1.568;2022-11-21T07:42:51;12.95;;;3.85;;
67902;SDS011;54708;43.612;1.568;2022-11-21T07:45:16;10.35;;;3.28;;
67902;SDS011;54708;43.612;1.568;2022-11-21T07:47:42;12.18;;;3.00;;
67902;SDS011;54708;43.612;1.568;2022-11-21T07:50:08;16.83;;;4.55;;
67902;SDS011;54708;43.612;1.568;2022-11-21T07:52:34;16.00;;;3.78;;
67902;SDS011;54708;43.612;1.568;2022-11-21T07:55:00;13.35;;;3.08;;
67902;SDS011;54708;43.612;1.568;2022-11-21T07:57:29;8.40;;;2.80;;
67902;SDS011;54708;43.612;1.568;2022-11-21T07:59:56;13.65;;;3.90;;
67902;SDS011;54708;43.612;1.568;2022-11-21T08:02:25;21.48;;;4.40;;
67902;SDS011;54708;43.612;1.568;2022-11-21T08:04:51;11.77;;;4.38;;
67902;SDS011;54708;43.612;1.568;2022-11-21T08:07:17;10.32;;;3.72;;
67902;SDS011;54708;43.612;1.568;2022-11-21T08:09:44;12.15;;;3.88;;
67902;SDS011;54708;43.612;1.568;2022-11-21T08:12:10;16.83;;;4.82;;
67902;SDS011;54708;43.612;1.568;2022-11-21T08:14:36;12.25;;;3.13;;
67902;SDS011;54708;43.612;1.568;2022-11-21T08:17:02;20.15;;;4.40;;
67902;SDS011;54708;43.612;1.568;2022-11-21T08:19:28;12.85;;;3.88;;
67902;SDS011;54708;43.612;1.568;2022-11-21T08:21:54;14.75;;;5.90;;
67902;SDS011;54708;43.612;1.568;2022-11-21T08:24:19;14.38;;;3.80;;
67902;SDS011;54708;43.612;1.568;2022-11-21T08:26:45;10.40;;;3.47;;
67902;SDS011;54708;43.612;1.568;2022-11-21T08:29:11;9.75;;;2.83;;
67902;SDS011;54708;43.612;1.568;2022-11-21T08:31:37;16.80;;;4.03;;
67902;SDS011;54708;43.612;1.568;2022-11-21T08:34:03;15.48;;;3.58;;
67902;SDS011;54708;43.612;1.568;2022-11-21T08:36:28;10.63;;;2.67;;
67902;SDS011;54708;43.612;1.568;2022-11-21T08:38:54;13.77;;;4.03;;
67902;SDS011;54708;43.612;1.568;2022-11-21T08:41:19;4.38;;;2.65;;
67902;SDS011;54708;43.612;1.568;2022-11-21T08:44:04;11.35;;;3.20;;
67902;SDS011;54708;43.612;1.568;2022-11-21T08:46:30;13.82;;;3.70;;
67902;SDS011;54708;43.612;1.568;2022-11-21T08:48:59;14.32;;;3.35;;
67902;SDS011;54708;43.612;1.568;2022-11-21T08:51:25;12.63;;;2.80;;
67902;SDS011;54708;43.612;1.568;2022-11-21T08:53:50;10.45;;;2.70;;
67902;SDS011;54708;43.612;1.568;2022-11-21T08:56:15;11.25;;;2.97;;
67902;SDS011;54708;43.612;1.568;2022-11-21T08:58:41;7.80;;;3.58;;
67902;SDS011;54708;43.612;1.568;2022-11-21T09:01:06;10.85;;;2.70;;
67902;SDS011;54708;43.612;1.568;2022-11-21T09:03:32;11.25;;;2.40;;
67902;SDS011;54708;43.612;1.568;2022-11-21T09:05:58;8.27;;;4.10;;
67902;SDS011;54708;43.612;1.568;2022-11-21T09:08:24;13.70;;;3.60;;
67902;SDS011;54708;43.612;1.568;2022-11-21T09:10:49;6.53;;;2.75;;
67902;SDS011;54708;43.612;1.568;2022-11-21T09:13:15;8.45;;;3.50;;
67902;SDS011;54708;43.612;1.568;2022-11-21T09:15:40;11.23;;;3.63;;
67902;SDS011;54708;43.612;1.568;2022-11-21T09:18:24;10.20;;;2.92;;
67902;SDS011;54708;43.612;1.568;2022-11-21T09:20:50;4.55;;;2.25;;
67902;SDS011;54708;43.612;1.568;2022-11-21T09:23:15;12.52;;;3.60;;
67902;SDS011;54708;43.612;1.568;2022-11-21T09:25:41;9.50;;;2.50;;
67902;SDS011;54708;43.612;1.568;2022-11-21T09:28:08;8.32;;;2.47;;
67902;SDS011;54708;43.612;1.568;2022-11-21T09:30:34;7.65;;;2.85;;
67902;SDS011;54708;43.612;1.568;2022-11-21T09:33:00;9.20;;;3.50;;
67902;SDS011;54708;43.612;1.568;2022-11-21T09:35:27;8.98;;;3.05;;
67902;SDS011;54708;43.612;1.568;2022-11-21T09:37:52;11.60;;;3.08;;
67902;SDS011;54708;43.612;1.568;2022-11-21T09:40:18;14.43;;;4.35;;
67902;SDS011;54708;43.612;1.568;2022-11-21T09:45:12;14.90;;;3.55;;
67902;SDS011;54708;43.612;1.568;2022-11-21T09:47:44;13.20;;;4.78;;
67902;SDS011;54708;43.612;1.568;2022-11-21T09:57:55;9.50;;;2.67;;
67902;SDS011;54708;43.612;1.568;2022-11-21T10:00:22;9.73;;;2.80;;
67902;SDS011;54708;43.612;1.568;2022-11-21T10:02:49;8.88;;;4.03;;
67902;SDS011;54708;43.612;1.568;2022-11-21T10:05:15;8.30;;;3.85;;
67902;SDS011;54708;43.612;1.568;2022-11-21T10:07:41;10.60;;;4.53;;
67902;SDS011;54708;43.612;1.568;2022-11-21T10:31:37;7.07;;;2.40;;
67902;SDS011;54708;43.612;1.568;2022-11-21T10:34:09;9.50;;;3.50;;
67902;SDS011;54708;43.612;1.568;2022-11-21T10:36:36;8.70;;;2.97;;
67902;SDS011;54708;43.612;1.568;2022-11-21T10:39:05;8.95;;;2.72;;
67902;SDS011;54708;43.612;1.568;2022-11-21T10:41:39;7.95;;;2.25;;
67902;SDS011;54708;43.612;1.568;2022-11-21T10:44:22;11.82;;;3.75;;
67902;SDS011;54708;43.612;1.568;2022-11-21T10:47:41;13.15;;;3.80;;
67902;SDS011;54708;43.612;1.568;2022-11-21T10:52:30;15.38;;;3.33;;
67902;SDS011;54708;43.612;1.568;2022-11-21T10:55:03;9.60;;;3.28;;
67902;SDS011;54708;43.612;1.568;2022-11-21T10:57:32;13.35;;;4.15;;
67902;SDS011;54708;43.612;1.568;2022-11-21T11:02:38;12.05;;;4.10;;
67902;SDS011;54708;43.612;1.568;2022-11-21T11:07:38;11.27;;;3.60;;
67902;SDS011;54708;43.612;1.568;2022-11-21T11:10:14;13.18;;;4.65;;
67902;SDS011;54708;43.612;1.568;2022-11-21T11:12:49;11.15;;;4.25;;
67902;SDS011;54708;43.612;1.568;2022-11-21T11:15:33;7.18;;;3.50;;
67902;SDS011;54708;43.612;1.568;2022-11-21T11:18:01;16.05;;;6.65;;
67902;SDS011;54708;43.612;1.568;2022-11-21T11:20:43;15.20;;;5.60;;
67902;SDS011;54708;43.612;1.568;2022-11-21T11:25:44;14.43;;;3.65;;
67902;SDS011;54708;43.612;1.568;2022-11-21T11:28:34;7.53;;;4.20;;
67902;SDS011;54708;43.612;1.568;2022-11-21T11:31:00;16.48;;;5.05;;
67902;SDS011;54708;43.612;1.568;2022-11-21T11:36:07;12.25;;;3.20;;
67902;SDS011;54708;43.612;1.568;2022-11-21T11:38:34;14.48;;;4.95;;
67902;SDS011;54708;43.612;1.568;2022-11-21T11:40:59;11.88;;;4.60;;
67902;SDS011;54708;43.612;1.568;2022-11-21T11:49:42;12.83;;;4.50;;
67902;SDS011;54708;43.612;1.568;2022-11-21T11:52:30;9.98;;;3.83;;
67902;SDS011;54708;43.612;1.568;2022-11-21T11:55:02;16.80;;;4.85;;
67902;SDS011;54708;43.612;1.568;2022-11-21T11:57:31;10.48;;;4.32;;
67902;SDS011;54708;43.612;1.568;2022-11-21T12:00:17;12.02;;;3.70;;
67902;SDS011;54708;43.612;1.568;2022-11-21T12:05:33;13.02;;;3.40;;
67902;SDS011;54708;43.612;1.568;2022-11-21T12:08:05;12.18;;;3.15;;
67902;SDS011;54708;43.612;1.568;2022-11-21T12:10:47;12.35;;;3.47;;
67902;SDS011;54708;43.612;1.568;2022-11-21T12:13:34;10.55;;;2.85;;
67902;SDS011;54708;43.612;1.568;2022-11-21T12:16:02;7.65;;;2.83;;
67902;SDS011;54708;43.612;1.568;2022-11-21T12:18:34;5.57;;;2.80;;
67902;SDS011;54708;43.612;1.568;2022-11-21T12:21:14;6.38;;;2.58;;
67902;SDS011;54708;43.612;1.568;2022-11-21T12:24:00;16.08;;;4.35;;
67902;SDS011;54708;43.612;1.568;2022-11-21T12:29:28;4.25;;;2.10;;
67902;SDS011;54708;43.612;1.568;2022-11-21T12:54:19;10.90;;;3.60;;
67902;SDS011;54708;43.612;1.568;2022-11-21T12:57:06;9.40;;;3.35;;
67902;SDS011;54708;43.612;1.568;2022-11-21T12:59:36;7.07;;;3.47;;
67902;SDS011;54708;43.612;1.568;2022-11-21T13:05:08;11.65;;;4.60;;
67902;SDS011;54708;43.612;1.568;2022-11-21T13:07:35;14.98;;;5.53;;
67902;SDS011;54708;43.612;1.568;2022-11-21T13:10:02;9.73;;;4.18;;
67902;SDS011;54708;43.612;1.568;2022-11-21T13:21:38;6.20;;;2.90;;
67902;SDS011;54708;43.612;1.568;2022-11-21T13:24:05;8.35;;;2.75;;
67902;SDS011;54708;43.612;1.568;2022-11-21T13:29:09;8.32;;;3.58;;
67902;SDS011;54708;43.612;1.568;2022-11-21T13:31:38;7.50;;;4.30;;
67902;SDS011;54708;43.612;1.568;2022-11-21T13:34:08;7.72;;;4.45;;
67902;SDS011;54708;43.612;1.568;2022-11-21T13:36:55;10.35;;;4.85;;
67902;SDS011;54708;43.612;1.568;2022-11-21T13:39:25;15.13;;;5.85;;
67902;SDS011;54708;43.612;1.568;2022-11-21T13:42:04;11.68;;;5.18;;
67902;SDS011;54708;43.612;1.568;2022-11-21T13:44:49;9.98;;;5.15;;
67902;SDS011;54708;43.612;1.568;2022-11-21T13:58:08;8.33;;;2.93;;
67902;SDS011;54708;43.612;1.568;2022-11-21T14:00:57;8.68;;;3.42;;
67902;SDS011;54708;43.612;1.568;2022-11-21T14:03:29;8.93;;;3.42;;
67902;SDS011;54708;43.612;1.568;2022-11-21T14:08:23;13.57;;;3.58;;
67902;SDS011;54708;43.612;1.568;2022-11-21T14:10:50;10.27;;;4.35;;
67902;SDS011;54708;43.612;1.568;2022-11-21T14:13:22;5.38;;;2.50;;
67902;SDS011;54708;43.612;1.568;2022-11-21T14:15:58;6.88;;;2.75;;
67902;SDS011;54708;43.612;1.568;2022-11-21T14:18:47;5.32;;;1.85;;
67902;SDS011;54708;43.612;1.568;2022-11-21T14:24:01;8.73;;;3.08;;
67902;SDS011;54708;43.612;1.568;2022-11-21T14:26:30;8.70;;;2.65;;
67902;SDS011;54708;43.612;1.568;2022-11-21T14:29:17;12.02;;;3.38;;
67902;SDS011;54708;43.612;1.568;2022-11-21T14:31:53;9.95;;;2.85;;
67902;SDS011;54708;43.612;1.568;2022-11-21T14:34:23;8.13;;;2.60;;
67902;SDS011;54708;43.612;1.568;2022-11-21T14:39:24;4.95;;;1.77;;
67902;SDS011;54708;43.612;1.568;2022-11-21T14:41:51;6.60;;;3.03;;
67902;SDS011;54708;43.612;1.568;2022-11-21T14:44:19;10.77;;;3.15;;
67902;SDS011;54708;43.612;1.568;2022-11-21T14:46:46;8.90;;;2.53;;
67902;SDS011;54708;43.612;1.568;2022-11-21T14:51:40;12.77;;;2.95;;
67902;SDS011;54708;43.612;1.568;2022-11-21T14:54:15;6.80;;;2.60;;
67902;SDS011;54708;43.612;1.568;2022-11-21T14:56:42;5.25;;;1.85;;
67902;SDS011;54708;43.612;1.568;2022-11-21T14:59:14;8.77;;;1.88;;
67902;SDS011;54708;43.612;1.568;2022-11-21T15:01:56;4.93;;;1.88;;
67902;SDS011;54708;43.612;1.568;2022-11-21T15:04:33;7.60;;;2.58;;
67902;SDS011;54708;43.612;1.568;2022-11-21T15:09:25;7.00;;;2.13;;
67902;SDS011;54708;43.612;1.568;2022-11-21T15:11:53;10.48;;;2.35;;
67902;SDS011;54708;43.612;1.568;2022-11-21T15:14:35;8.10;;;2.70;;
67902;SDS011;54708;43.612;1.568;2022-11-21T15:17:03;3.97;;;2.60;;
67902;SDS011;54708;43.612;1.568;2022-11-21T15:19:31;9.45;;;3.17;;
67902;SDS011;54708;43.612;1.568;2022-11-21T15:21:57;3.65;;;1.70;;
67902;SDS011;54708;43.612;1.568;2022-11-21T15:27:00;3.58;;;1.40;;
67902;SDS011;54708;43.612;1.568;2022-11-21T15:29:25;3.42;;;1.80;;
67902;SDS011;54708;43.612;1.568;2022-11-21T15:34:50;5.65;;;1.85;;
67902;SDS011;54708;43.612;1.568;2022-11-21T15:37:19;5.28;;;1.65;;
67902;SDS011;54708;43.612;1.568;2022-11-21T15:39:57;3.97;;;1.25;;
67902;SDS011;54708;43.612;1.568;2022-11-21T15:47:24;4.78;;;2.67;;
67902;SDS011;54708;43.612;1.568;2022-11-21T15:49:49;8.90;;;2.28;;
67902;SDS011;54708;43.612;1.568;2022-11-21T15:52:15;5.15;;;2.58;;
67902;SDS011;54708;43.612;1.568;2022-11-21T15:54:40;5.28;;;1.90;;
67902;SDS011;54708;43.612;1.568;2022-11-21T15:57:07;4.38;;;2.33;;
67902;SDS011;54708;43.612;1.568;2022-11-21T15:59:33;3.30;;;2.05;;
67902;SDS011;54708;43.612;1.568;2022-11-21T16:01:58;6.57;;;2.38;;
67902;SDS011;54708;43.612;1.568;2022-11-21T16:04:24;6.32;;;2.95;;
67902;SDS011;54708;43.612;1.568;2022-11-21T16:06:49;4.88;;;2.75;;
67902;SDS011;54708;43.612;1.568;2022-11-21T16:09:14;7.38;;;2.63;;
67902;SDS011;54708;43.612;1.568;2022-11-21T16:11:40;12.00;;;4.22;;
67902;SDS011;54708;43.612;1.568;2022-11-21T16:14:07;12.50;;;3.15;;
67902;SDS011;54708;43.612;1.568;2022-11-21T16:16:37;11.90;;;3.53;;
67902;SDS011;54708;43.612;1.568;2022-11-21T16:19:03;7.85;;;2.20;;
67902;SDS011;54708;43.612;1.568;2022-11-21T16:21:29;8.18;;;2.95;;
67902;SDS011;54708;43.612;1.568;2022-11-21T16:23:55;6.28;;;2.50;;
67902;SDS011;54708;43.612;1.568;2022-11-21T16:26:20;11.68;;;2.83;;
67902;SDS011;54708;43.612;1.568;2022-11-21T16:28:46;11.85;;;3.25;;
67902;SDS011;54708;43.612;1.568;2022-11-21T16:31:25;21.65;;;4.20;;
67902;SDS011;54708;43.612;1.568;2022-11-21T16:33:51;14.48;;;4.32;;
67902;SDS011;54708;43.612;1.568;2022-11-21T16:36:21;24.67;;;4.63;;
67902;SDS011;54708;43.612;1.568;2022-11-21T16:38:49;14.68;;;4.47;;
67902;SDS011;54708;43.612;1.568;2022-11-21T16:41:18;12.57;;;3.55;;
67902;SDS011;54708;43.612;1.568;2022-11-21T16:43:45;12.20;;;3.85;;
67902;SDS011;54708;43.612;1.568;2022-11-21T16:46:11;11.15;;;4.63;;
67902;SDS011;54708;43.612;1.568;2022-11-21T16:48:37;16.88;;;4.30;;
67902;SDS011;54708;43.612;1.568;2022-11-21T16:53:38;10.32;;;3.85;;
67902;SDS011;54708;43.612;1.568;2022-11-21T16:56:04;9.15;;;3.08;;
67902;SDS011;54708;43.612;1.568;2022-11-21T16:58:30;13.52;;;3.63;;
67902;SDS011;54708;43.612;1.568;2022-11-21T17:00:55;17.88;;;3.92;;
67902;SDS011;54708;43.612;1.568;2022-11-21T17:03:21;15.65;;;3.67;;
67902;SDS011;54708;43.612;1.568;2022-11-21T17:05:58;15.77;;;5.53;;
67902;SDS011;54708;43.612;1.568;2022-11-21T17:08:24;10.63;;;3.40;;